createdAt,value
2023-05-11T00:00:46.291Z,26.41
2023-05-11T00:01:46.293Z,26.41
2023-05-11T00:02:46.464Z,26.41
2023-05-11T00:03:46.650Z,26.42
2023-05-11T00:04:46.740Z,26.41
2023-05-11T00:05:46.529Z,26.39
2023-05-11T00:06:46.541Z,26.41
2023-05-11T00:07:46.662Z,26.39
2023-05-11T00:08:46.741Z,26.39
2023-05-11T00:09:46.813Z,26.39
2023-05-11T00:10:46.906Z,26.41
2023-05-11T00:11:46.897Z,26.41
2023-05-11T00:12:46.922Z,26.38
2023-05-11T00:13:46.894Z,26.39
2023-05-11T00:14:46.924Z,26.42
2023-05-11T00:15:46.959Z,26.41
2023-05-11T00:16:46.991Z,26.41
2023-05-11T00:17:47.004Z,26.39
2023-05-11T00:18:47.027Z,26.41
2023-05-11T00:19:46.983Z,26.39
2023-05-11T00:20:46.988Z,26.41
2023-05-11T00:21:46.999Z,26.36
2023-05-11T00:22:47.067Z,26.41
2023-05-11T00:23:47.067Z,26.41
2023-05-11T00:24:47.056Z,26.39
2023-05-11T00:25:47.064Z,26.38
2023-05-11T00:26:47.058Z,26.38
2023-05-11T00:27:47.098Z,26.38
2023-05-11T00:28:47.150Z,26.38
2023-05-11T00:29:47.189Z,26.38
2023-05-11T00:30:47.161Z,26.38
2023-05-11T00:31:47.193Z,26.39
2023-05-11T00:32:47.188Z,26.36
2023-05-11T00:33:47.188Z,26.36
2023-05-11T00:34:47.305Z,26.38
2023-05-11T00:35:47.390Z,26.38
2023-05-11T00:36:47.502Z,26.38
2023-05-11T00:37:47.595Z,26.36
2023-05-11T00:38:47.687Z,26.36
2023-05-11T00:39:47.686Z,26.38
2023-05-11T00:40:47.706Z,26.38
2023-05-11T00:41:47.696Z,26.38
2023-05-11T00:42:47.694Z,26.39
2023-05-11T00:43:47.691Z,26.35
2023-05-11T00:44:47.774Z,26.38
2023-05-11T00:45:47.753Z,26.36
2023-05-11T00:46:47.801Z,26.36
2023-05-11T00:47:47.809Z,26.38
2023-05-11T00:48:47.777Z,26.36
2023-05-11T00:49:47.921Z,26.36
2023-05-11T00:50:47.861Z,26.35
2023-05-11T00:51:47.867Z,26.34
2023-05-11T00:52:47.820Z,26.36
2023-05-11T00:53:47.816Z,26.38
2023-05-11T00:54:47.848Z,26.36
2023-05-11T00:55:47.861Z,26.36
2023-05-11T00:56:47.966Z,26.35
2023-05-11T00:57:47.995Z,26.36
2023-05-11T00:58:47.999Z,26.36
2023-05-11T00:59:47.969Z,26.36
2023-05-11T01:00:48.028Z,26.32
2023-05-11T01:01:48.007Z,26.36
2023-05-11T01:02:48.246Z,26.34
2023-05-11T01:03:48.143Z,26.35
2023-05-11T01:04:48.249Z,26.35
2023-05-11T01:05:48.252Z,26.35
2023-05-11T01:06:48.234Z,26.34
2023-05-11T01:07:48.292Z,26.36
2023-05-11T01:08:48.354Z,26.32
2023-05-11T01:09:48.230Z,26.35
2023-05-11T01:10:48.321Z,26.34
2023-05-11T01:11:48.481Z,26.35
2023-05-11T01:12:48.348Z,26.35
2023-05-11T01:13:48.356Z,26.34
2023-05-11T01:14:48.361Z,26.36
2023-05-11T01:15:48.410Z,26.32
2023-05-11T01:16:48.517Z,26.35
2023-05-11T01:17:48.641Z,26.34
2023-05-11T01:18:48.629Z,26.35
2023-05-11T01:19:48.625Z,26.34
2023-05-11T01:20:48.619Z,26.35
2023-05-11T01:21:48.619Z,26.32
2023-05-11T01:22:48.638Z,26.32
2023-05-11T01:23:48.718Z,26.34
2023-05-11T01:24:48.845Z,26.35
2023-05-11T01:25:48.845Z,26.32
2023-05-11T01:26:48.836Z,26.35
2023-05-11T01:27:48.851Z,26.34
2023-05-11T01:28:48.874Z,26.36
2023-05-11T01:29:48.868Z,26.35
2023-05-11T01:30:48.981Z,26.32
2023-05-11T01:31:49.004Z,26.34
2023-05-11T01:32:48.978Z,26.34
2023-05-11T01:33:48.959Z,26.32
2023-05-11T01:34:48.962Z,26.31
2023-05-11T01:35:48.987Z,26.34
2023-05-11T01:36:49.084Z,26.34
2023-05-11T01:37:49.068Z,26.31
2023-05-11T01:38:49.115Z,26.31
2023-05-11T01:39:49.127Z,26.32
2023-05-11T01:40:49.081Z,26.31
2023-05-11T01:41:49.086Z,26.32
2023-05-11T01:42:49.131Z,26.32
2023-05-11T01:43:49.158Z,26.31
2023-05-11T01:44:49.164Z,26.32
2023-05-11T01:45:51.234Z,26.34
2023-05-11T01:46:49.184Z,26.31
2023-05-11T01:47:49.198Z,26.32
2023-05-11T01:48:49.169Z,26.31
2023-05-11T01:49:49.173Z,26.31
2023-05-11T01:50:49.178Z,26.31
2023-05-11T01:51:49.154Z,26.31
2023-05-11T01:52:49.212Z,26.29
2023-05-11T01:53:49.337Z,26.31
2023-05-11T01:54:49.350Z,26.32
2023-05-11T01:55:49.310Z,26.31
2023-05-11T01:56:49.312Z,26.29
2023-05-11T01:57:49.319Z,26.31
2023-05-11T01:58:49.345Z,26.28
2023-05-11T01:59:49.356Z,26.31
2023-05-11T02:00:49.350Z,26.31
2023-05-11T02:01:49.401Z,26.29
2023-05-11T02:02:49.497Z,26.32
2023-05-11T02:03:49.398Z,26.32
2023-05-11T02:04:49.416Z,26.28
2023-05-11T02:05:49.386Z,26.31
2023-05-11T02:06:49.380Z,26.29
2023-05-11T02:07:49.389Z,26.31
2023-05-11T02:08:49.386Z,26.29
2023-05-11T02:09:49.415Z,26.28
2023-05-11T02:10:49.406Z,26.29
2023-05-11T02:11:49.417Z,26.27
2023-05-11T02:12:49.391Z,26.31
2023-05-11T02:13:49.404Z,26.29
2023-05-11T02:14:49.415Z,26.29
2023-05-11T02:15:49.456Z,26.29
2023-05-11T02:16:49.420Z,26.29
2023-05-11T02:17:49.470Z,26.29
2023-05-11T02:18:49.431Z,26.28
2023-05-11T02:19:49.496Z,26.29
2023-05-11T02:20:49.617Z,26.29
2023-05-11T02:21:49.562Z,26.28
2023-05-11T02:22:49.590Z,26.27
2023-05-11T02:23:49.580Z,26.28
2023-05-11T02:24:49.583Z,26.27
2023-05-11T02:25:49.587Z,26.25
2023-05-11T02:26:49.659Z,26.28
2023-05-11T02:27:49.664Z,26.29
2023-05-11T02:28:49.668Z,26.28
2023-05-11T02:29:49.662Z,26.27
2023-05-11T02:30:49.663Z,26.28
2023-05-11T02:31:49.686Z,26.25
2023-05-11T02:32:49.805Z,26.28
2023-05-11T02:33:52.124Z,26.28
2023-05-11T02:34:49.753Z,26.27
2023-05-11T02:35:49.732Z,26.31
2023-05-11T02:36:49.731Z,26.27
2023-05-11T02:37:49.729Z,26.27
2023-05-11T02:38:49.711Z,26.27
2023-05-11T02:39:49.719Z,26.27
2023-05-11T02:40:49.699Z,26.27
2023-05-11T02:41:49.688Z,26.29
2023-05-11T02:42:49.689Z,26.25
2023-05-11T02:43:49.723Z,26.25
2023-05-11T02:44:49.677Z,26.27
2023-05-11T02:45:49.667Z,26.25
2023-05-11T02:46:49.669Z,26.28
2023-05-11T02:47:49.675Z,26.27
2023-05-11T02:48:49.634Z,26.28
2023-05-11T02:49:49.658Z,26.27
2023-05-11T02:50:49.632Z,26.28
2023-05-11T02:51:49.613Z,26.25
2023-05-11T02:52:49.597Z,26.28
2023-05-11T02:53:49.624Z,26.25
2023-05-11T02:54:49.603Z,26.27
2023-05-11T02:55:49.597Z,26.25
2023-05-11T02:56:49.582Z,26.29
2023-05-11T02:57:49.618Z,26.24
2023-05-11T02:58:49.556Z,26.24
2023-05-11T02:59:49.569Z,26.25
2023-05-11T03:00:49.625Z,26.25
2023-05-11T03:01:49.687Z,26.28
2023-05-11T03:02:49.648Z,26.25
2023-05-11T03:03:49.604Z,26.25
2023-05-11T03:04:49.537Z,26.25
2023-05-11T03:05:49.524Z,26.28
2023-05-11T03:06:49.510Z,26.24
2023-05-11T03:07:49.508Z,26.27
2023-05-11T03:08:49.506Z,26.24
2023-05-11T03:09:49.488Z,26.25
2023-05-11T03:10:49.483Z,26.27
2023-05-11T03:11:49.471Z,26.25
2023-05-11T03:12:49.462Z,26.27
2023-05-11T03:13:49.474Z,26.25
2023-05-11T03:14:49.460Z,26.24
2023-05-11T03:15:49.438Z,26.25
2023-05-11T03:16:49.514Z,26.24
2023-05-11T03:17:49.496Z,26.25
2023-05-11T03:18:49.488Z,26.25
2023-05-11T03:19:49.432Z,26.25
2023-05-11T03:20:49.430Z,26.25
2023-05-11T03:21:49.429Z,26.24
2023-05-11T03:22:49.429Z,26.25
2023-05-11T03:23:49.410Z,26.25
2023-05-11T03:24:49.409Z,26.24
2023-05-11T03:25:49.372Z,26.25
2023-05-11T03:26:49.384Z,26.25
2023-05-11T03:27:49.381Z,26.24
2023-05-11T03:28:49.359Z,26.24
2023-05-11T03:29:49.397Z,26.24
2023-05-11T03:30:49.364Z,26.25
2023-05-11T03:31:51.213Z,26.24
2023-05-11T03:32:49.389Z,26.22
2023-05-11T03:33:49.345Z,26.24
2023-05-11T03:34:49.348Z,26.22
2023-05-11T03:35:49.338Z,26.22
2023-05-11T03:36:49.328Z,26.24
2023-05-11T03:37:49.327Z,26.24
2023-05-11T03:38:49.315Z,26.22
2023-05-11T03:39:49.293Z,26.24
2023-05-11T03:40:49.298Z,26.22
2023-05-11T03:41:49.328Z,26.24
2023-05-11T03:42:49.274Z,26.22
2023-05-11T03:43:50.901Z,26.21
2023-05-11T03:44:49.280Z,26.22
2023-05-11T03:45:49.286Z,26.22
2023-05-11T03:46:49.263Z,26.21
2023-05-11T03:47:49.278Z,26.22
2023-05-11T03:48:49.248Z,26.21
2023-05-11T03:49:49.250Z,26.25
2023-05-11T03:50:49.247Z,26.24
2023-05-11T03:51:49.246Z,26.22
2023-05-11T03:52:49.283Z,26.22
2023-05-11T03:53:49.273Z,26.24
2023-05-11T03:54:49.386Z,26.21
2023-05-11T03:55:49.390Z,26.22
2023-05-11T03:56:49.393Z,26.20
2023-05-11T03:57:49.390Z,26.21
2023-05-11T03:58:49.413Z,26.22
2023-05-11T03:59:49.398Z,26.24
2023-05-11T04:00:49.405Z,26.22
2023-05-11T04:01:49.435Z,26.20
2023-05-11T04:02:49.519Z,26.25
2023-05-11T04:03:49.648Z,26.20
2023-05-11T04:04:49.501Z,26.22
2023-05-11T04:05:49.559Z,26.20
2023-05-11T04:06:49.543Z,26.22
2023-05-11T04:07:49.569Z,26.21
2023-05-11T04:08:49.621Z,26.20
2023-05-11T04:09:49.630Z,26.21
2023-05-11T04:10:49.611Z,26.22
2023-05-11T04:11:49.651Z,26.20
2023-05-11T04:12:49.697Z,26.21
2023-05-11T04:13:49.664Z,26.21
2023-05-11T04:14:49.693Z,26.20
2023-05-11T04:15:50.257Z,26.20
2023-05-11T04:16:49.802Z,26.21
2023-05-11T04:17:49.839Z,26.21
2023-05-11T04:18:49.880Z,26.21
2023-05-11T04:19:49.818Z,26.21
2023-05-11T04:20:49.831Z,26.21
2023-05-11T04:21:49.960Z,26.21
2023-05-11T04:22:49.948Z,26.22
2023-05-11T04:23:49.971Z,26.21
2023-05-11T04:24:49.968Z,26.21
2023-05-11T04:25:49.994Z,26.22
2023-05-11T04:26:50.021Z,26.21
2023-05-11T04:27:50.140Z,26.21
2023-05-11T04:28:50.122Z,26.21
2023-05-11T04:29:50.135Z,26.22
2023-05-11T04:30:50.134Z,26.21
2023-05-11T04:31:50.181Z,26.20
2023-05-11T04:32:50.203Z,26.21
2023-05-11T04:33:50.210Z,26.20
2023-05-11T04:34:50.236Z,26.21
2023-05-11T04:35:50.234Z,26.18
2023-05-11T04:36:50.254Z,26.21
2023-05-11T04:37:50.253Z,26.20
2023-05-11T04:38:50.362Z,26.20
2023-05-11T04:39:50.424Z,26.21
2023-05-11T04:40:50.457Z,26.22
2023-05-11T04:41:50.446Z,26.18
2023-05-11T04:42:50.458Z,26.18
2023-05-11T04:43:50.441Z,26.18
2023-05-11T04:44:50.491Z,26.20
2023-05-11T04:45:50.451Z,26.20
2023-05-11T04:46:50.509Z,26.22
2023-05-11T04:47:50.538Z,26.20
2023-05-11T04:48:50.528Z,26.18
2023-05-11T04:49:50.540Z,26.20
2023-05-11T04:50:50.565Z,26.21
2023-05-11T04:51:50.564Z,26.21
2023-05-11T04:52:50.618Z,26.20
2023-05-11T04:53:50.603Z,26.20
2023-05-11T04:54:50.585Z,26.18
2023-05-11T04:55:50.588Z,26.21
2023-05-11T04:56:50.608Z,26.18
2023-05-11T04:57:50.597Z,26.20
2023-05-11T04:58:50.643Z,26.20
2023-05-11T04:59:50.676Z,26.20
2023-05-11T05:00:50.659Z,26.18
2023-05-11T05:01:50.639Z,26.20
2023-05-11T05:02:50.688Z,26.15
2023-05-11T05:03:50.964Z,26.21
2023-05-11T05:04:50.698Z,26.18
2023-05-11T05:05:50.737Z,26.18
2023-05-11T05:06:50.738Z,26.20
2023-05-11T05:07:50.737Z,26.18
2023-05-11T05:08:50.763Z,26.17
2023-05-11T05:09:50.798Z,26.20
2023-05-11T05:10:50.825Z,26.18
2023-05-11T05:11:50.834Z,26.20
2023-05-11T05:12:50.833Z,26.21
2023-05-11T05:13:50.870Z,26.18
2023-05-11T05:14:50.927Z,26.18
2023-05-11T05:15:50.938Z,26.17
2023-05-11T05:16:50.964Z,26.17
2023-05-11T05:17:50.997Z,26.18
2023-05-11T05:18:51.014Z,26.17
2023-05-11T05:19:51.052Z,26.17
2023-05-11T05:20:51.091Z,26.21
2023-05-11T05:21:51.115Z,26.18
2023-05-11T05:22:51.145Z,26.20
2023-05-11T05:23:51.144Z,26.20
2023-05-11T05:24:51.160Z,26.17
2023-05-11T05:25:51.185Z,26.18
2023-05-11T05:26:51.193Z,26.18
2023-05-11T05:27:51.224Z,26.17
2023-05-11T05:28:51.226Z,26.17
2023-05-11T05:29:51.231Z,26.20
2023-05-11T05:30:51.285Z,26.20
2023-05-11T05:31:51.309Z,26.21
2023-05-11T05:32:51.369Z,26.25
2023-05-11T05:33:51.330Z,26.24
2023-05-11T05:34:51.366Z,26.28
2023-05-11T05:35:51.388Z,26.31
2023-05-11T05:36:51.394Z,26.32
2023-05-11T05:37:51.434Z,26.35
2023-05-11T05:38:51.409Z,26.39
2023-05-11T05:39:51.524Z,26.42
2023-05-11T05:40:51.707Z,26.46
2023-05-11T05:41:51.625Z,26.45
2023-05-11T05:42:51.615Z,26.45
2023-05-11T05:43:51.652Z,26.46
2023-05-11T05:44:51.623Z,26.49
2023-05-11T05:45:52.153Z,26.46
2023-05-11T05:46:51.639Z,26.51
2023-05-11T05:47:51.741Z,26.53
2023-05-11T05:48:51.629Z,26.52
2023-05-11T05:49:51.616Z,26.55
2023-05-11T05:50:51.700Z,26.55
2023-05-11T05:51:51.771Z,26.55
2023-05-11T05:52:51.892Z,26.58
2023-05-11T05:53:51.926Z,26.59
2023-05-11T05:54:52.010Z,26.60
2023-05-11T05:55:52.050Z,26.60
2023-05-11T05:56:52.069Z,26.60
2023-05-11T05:57:52.087Z,26.62
2023-05-11T05:58:52.116Z,26.63
2023-05-11T05:59:52.096Z,26.64
2023-05-11T06:00:52.139Z,26.68
2023-05-11T06:01:52.202Z,26.68
2023-05-11T06:02:52.283Z,26.69
2023-05-11T06:03:52.534Z,26.69
2023-05-11T06:04:52.445Z,26.72
2023-05-11T06:05:52.429Z,26.73
2023-05-11T06:06:52.463Z,26.70
2023-05-11T06:08:08.359Z,26.72
2023-05-11T06:08:53.622Z,26.75
2023-05-11T06:09:52.477Z,26.73
2023-05-11T06:10:52.623Z,26.76
2023-05-11T06:11:52.473Z,26.79
2023-05-11T06:12:52.474Z,26.78
2023-05-11T06:13:52.502Z,26.80
2023-05-11T06:14:52.441Z,26.80
2023-05-11T06:15:52.520Z,26.80
2023-05-11T06:16:52.470Z,26.80
2023-05-11T06:17:52.533Z,26.80
2023-05-11T06:18:52.643Z,26.85
2023-05-11T06:19:52.665Z,26.82
2023-05-11T06:20:53.145Z,26.85
2023-05-11T06:21:52.719Z,26.85
2023-05-11T06:22:52.848Z,26.83
2023-05-11T06:23:52.822Z,26.89
2023-05-11T06:24:52.935Z,26.87
2023-05-11T06:25:52.958Z,26.87
2023-05-11T06:26:53.030Z,26.90
2023-05-11T06:27:53.049Z,26.90
2023-05-11T06:28:53.096Z,26.91
2023-05-11T06:29:53.180Z,26.90
2023-05-11T06:30:53.635Z,26.93
2023-05-11T06:31:53.291Z,26.93
2023-05-11T06:32:53.321Z,26.94
2023-05-11T06:33:53.358Z,26.94
2023-05-11T06:34:53.449Z,26.97
2023-05-11T06:35:53.619Z,26.97
2023-05-11T06:36:53.524Z,26.96
2023-05-11T06:37:53.540Z,27.01
2023-05-11T06:38:53.619Z,27.04
2023-05-11T06:39:53.634Z,27.07
2023-05-11T06:40:54.113Z,27.07
2023-05-11T06:41:55.310Z,27.10
2023-05-11T06:42:53.730Z,27.11
2023-05-11T06:43:53.716Z,27.14
2023-05-11T06:44:53.768Z,27.14
2023-05-11T06:45:54.183Z,27.18
2023-05-11T06:46:53.665Z,27.17
2023-05-11T06:47:53.832Z,27.18
2023-05-11T06:48:53.662Z,27.20
2023-05-11T06:49:53.678Z,27.20
2023-05-11T06:50:53.641Z,27.23
2023-05-11T06:51:53.621Z,27.20
2023-05-11T06:52:53.641Z,27.24
2023-05-11T06:53:53.639Z,27.26
2023-05-11T06:54:53.638Z,27.24
2023-05-11T06:55:53.658Z,27.26
2023-05-11T06:56:54.118Z,27.24
2023-05-11T06:57:53.587Z,27.27
2023-05-11T06:58:53.574Z,27.27
2023-05-11T06:59:53.599Z,27.28
2023-05-11T07:00:53.618Z,27.28
2023-05-11T07:01:53.567Z,27.31
2023-05-11T07:02:54.229Z,27.30
2023-05-11T07:03:54.893Z,27.31
2023-05-11T07:04:53.623Z,27.31
2023-05-11T07:05:53.629Z,27.28
2023-05-11T07:06:53.555Z,27.31
2023-05-11T07:07:53.536Z,27.31
2023-05-11T07:08:53.530Z,27.30
2023-05-11T07:09:53.502Z,27.31
2023-05-11T07:10:53.648Z,27.31
2023-05-11T07:11:53.518Z,27.31
2023-05-11T07:12:53.477Z,27.33
2023-05-11T07:13:53.486Z,27.31
2023-05-11T07:14:53.491Z,27.33
2023-05-11T07:15:55.224Z,27.33
2023-05-11T07:16:53.493Z,27.34
2023-05-11T07:17:53.617Z,27.36
2023-05-11T07:18:53.601Z,27.34
2023-05-11T07:19:53.400Z,27.31
2023-05-11T07:20:53.629Z,27.34
2023-05-11T07:21:53.457Z,27.34
2023-05-11T07:22:53.393Z,27.33
2023-05-11T07:23:53.390Z,27.36
2023-05-11T07:24:53.390Z,27.33
2023-05-11T07:25:53.657Z,27.34
2023-05-11T07:26:53.360Z,27.37
2023-05-11T07:27:53.395Z,27.38
2023-05-11T07:28:53.367Z,27.41
2023-05-11T07:29:53.352Z,27.42
2023-05-11T07:30:54.139Z,27.44
2023-05-11T07:31:53.380Z,27.42
2023-05-11T07:32:53.353Z,27.41
2023-05-11T07:33:53.341Z,27.42
2023-05-11T07:34:53.282Z,27.44
2023-05-11T07:35:53.324Z,27.47
2023-05-11T07:36:53.305Z,27.44
2023-05-11T07:37:53.300Z,27.44
2023-05-11T07:38:53.260Z,27.48
2023-05-11T07:39:53.245Z,27.42
2023-05-11T07:40:53.274Z,27.45
2023-05-11T07:41:53.235Z,27.44
2023-05-11T07:42:53.234Z,27.45
2023-05-11T07:43:53.247Z,27.42
2023-05-11T07:44:53.262Z,27.45
2023-05-11T07:45:53.241Z,27.44
2023-05-11T07:46:53.241Z,27.45
2023-05-11T07:47:53.258Z,27.45
2023-05-11T07:49:03.542Z,27.50
2023-05-11T07:49:54.172Z,27.47
2023-05-11T07:50:53.211Z,27.48
2023-05-11T07:51:53.207Z,27.47
2023-05-11T07:52:53.191Z,27.51
2023-05-11T07:53:53.187Z,27.50
2023-05-11T07:54:53.168Z,27.51
2023-05-11T07:55:53.188Z,27.51
2023-05-11T07:56:53.184Z,27.57
2023-05-11T07:57:53.152Z,27.55
2023-05-11T07:58:53.147Z,27.55
2023-05-11T07:59:53.146Z,27.55
2023-05-11T08:00:53.221Z,27.55
2023-05-11T08:01:53.149Z,27.57
2023-05-11T08:02:53.443Z,27.58
2023-05-11T08:03:53.083Z,27.61
2023-05-11T08:04:53.087Z,27.59
2023-05-11T08:05:53.213Z,27.61
2023-05-11T08:06:53.082Z,27.61
2023-05-11T08:07:53.047Z,27.61
2023-05-11T08:08:53.072Z,27.62
2023-05-11T08:09:53.044Z,27.64
2023-05-11T08:10:53.073Z,27.65
2023-05-11T08:11:53.055Z,27.64
2023-05-11T08:12:53.024Z,27.62
2023-05-11T08:13:53.038Z,27.66
2023-05-11T08:14:53.025Z,27.66
2023-05-11T08:15:53.213Z,27.66
2023-05-11T08:16:53.676Z,27.68
2023-05-11T08:17:53.052Z,27.69
2023-05-11T08:18:53.048Z,27.68
2023-05-11T08:19:52.985Z,27.68
2023-05-11T08:20:53.210Z,27.69
2023-05-11T08:21:53.000Z,27.69
2023-05-11T08:22:53.019Z,27.69
2023-05-11T08:23:53.038Z,27.68
2023-05-11T08:24:53.065Z,27.71
2023-05-11T08:25:53.199Z,27.71
2023-05-11T08:26:53.064Z,27.71
2023-05-11T08:27:53.062Z,27.71
2023-05-11T08:28:53.119Z,27.73
2023-05-11T08:29:53.132Z,27.72
2023-05-11T08:30:53.210Z,27.73
2023-05-11T08:31:53.238Z,27.75
2023-05-11T08:32:58.387Z,27.72
2023-05-11T08:33:54.273Z,27.71
2023-05-11T08:34:53.316Z,27.71
2023-05-11T08:35:53.191Z,27.69
2023-05-11T08:36:53.187Z,27.69
2023-05-11T08:37:53.221Z,27.71
2023-05-11T08:38:56.999Z,27.71
2023-05-11T08:39:54.172Z,27.68
2023-05-11T08:40:53.221Z,27.68
2023-05-11T08:41:53.164Z,27.66
2023-05-11T08:42:53.128Z,27.65
2023-05-11T08:43:53.128Z,27.62
2023-05-11T08:44:53.110Z,27.61
2023-05-11T08:45:53.177Z,27.55
2023-05-11T08:47:03.638Z,27.54
2023-05-11T08:47:54.141Z,27.45
2023-05-11T08:48:53.110Z,27.47
2023-05-11T08:49:53.086Z,27.42
2023-05-11T08:50:53.097Z,27.38
2023-05-11T08:51:53.197Z,27.38
2023-05-11T08:52:53.054Z,27.36
2023-05-11T08:53:53.077Z,27.34
2023-05-11T08:54:53.059Z,27.30
2023-05-11T08:55:53.061Z,27.26
2023-05-11T08:56:53.049Z,27.24
2023-05-11T08:57:53.041Z,27.23
2023-05-11T08:58:54.712Z,27.20
2023-05-11T08:59:53.087Z,27.21
2023-05-11T09:00:53.067Z,27.15
2023-05-11T09:01:53.729Z,27.14
2023-05-11T09:02:53.088Z,27.14
2023-05-11T09:03:53.058Z,27.10
2023-05-11T09:04:53.066Z,27.11
2023-05-11T09:05:53.089Z,27.07
2023-05-11T09:06:53.167Z,27.06
2023-05-11T09:07:53.020Z,27.03
2023-05-11T09:08:52.995Z,27.03
2023-05-11T09:09:53.019Z,27.03
2023-05-11T09:10:52.982Z,26.99
2023-05-11T09:11:53.202Z,26.96
2023-05-11T09:12:52.965Z,26.93
2023-05-11T09:13:53.006Z,26.96
2023-05-11T09:14:52.999Z,26.96
2023-05-11T09:15:52.985Z,26.97
2023-05-11T09:16:52.998Z,26.97
2023-05-11T09:17:53.058Z,27.01
2023-05-11T09:18:52.957Z,27.04
2023-05-11T09:19:52.909Z,27.07
2023-05-11T09:20:52.946Z,27.11
2023-05-11T09:21:52.897Z,27.14
2023-05-11T09:22:52.931Z,27.15
2023-05-11T09:23:52.877Z,27.20
2023-05-11T09:24:52.905Z,27.21
2023-05-11T09:25:52.892Z,27.27
2023-05-11T09:26:52.871Z,27.30
2023-05-11T09:27:52.867Z,27.33
2023-05-11T09:29:02.457Z,27.33
2023-05-11T09:29:53.854Z,27.37
2023-05-11T09:30:52.849Z,27.33
2023-05-11T09:31:53.234Z,27.38
2023-05-11T09:32:52.967Z,27.40
2023-05-11T09:33:52.832Z,27.42
2023-05-11T09:34:52.844Z,27.47
2023-05-11T09:35:52.804Z,27.48
2023-05-11T09:36:53.235Z,27.50
2023-05-11T09:37:52.786Z,27.50
2023-05-11T09:38:57.292Z,27.51
2023-05-11T09:40:53.794Z,27.52
2023-05-11T09:41:52.762Z,27.51
2023-05-11T09:42:52.769Z,27.52
2023-05-11T09:43:52.752Z,27.52
2023-05-11T09:44:52.771Z,27.55
2023-05-11T09:45:52.794Z,27.52
2023-05-11T09:46:53.252Z,27.54
2023-05-11T09:47:52.752Z,27.54
2023-05-11T09:48:52.687Z,27.54
2023-05-11T09:49:52.683Z,27.57
2023-05-11T09:50:52.688Z,27.57
2023-05-11T09:51:52.722Z,27.55
2023-05-11T09:52:52.667Z,27.57
2023-05-11T09:53:52.686Z,27.57
2023-05-11T09:54:52.724Z,27.58
2023-05-11T09:55:52.650Z,27.55
2023-05-11T09:56:52.630Z,27.57
2023-05-11T09:57:52.630Z,27.59
2023-05-11T09:58:52.670Z,27.59
2023-05-11T09:59:52.612Z,27.59
2023-05-11T10:00:52.595Z,27.59
2023-05-11T10:01:52.641Z,27.62
2023-05-11T10:02:52.648Z,27.62
2023-05-11T10:03:52.699Z,27.61
2023-05-11T10:04:52.588Z,27.62
2023-05-11T10:05:52.584Z,27.64
2023-05-11T10:06:52.722Z,27.65
2023-05-11T10:07:52.697Z,27.64
2023-05-11T10:08:52.741Z,27.65
2023-05-11T10:09:52.804Z,27.65
2023-05-11T10:10:52.846Z,27.64
2023-05-11T10:11:52.938Z,27.64
2023-05-11T10:12:52.938Z,27.68
2023-05-11T10:13:52.994Z,27.68
2023-05-11T10:14:53.068Z,27.65
2023-05-11T10:15:53.155Z,27.65
2023-05-11T10:16:53.155Z,27.68
2023-05-11T10:17:53.298Z,27.68
2023-05-11T10:18:53.397Z,27.68
2023-05-11T10:19:53.412Z,27.66
2023-05-11T10:20:53.391Z,27.71
2023-05-11T10:21:53.451Z,27.69
2023-05-11T10:22:53.562Z,27.71
2023-05-11T10:23:53.559Z,27.68
2023-05-11T10:24:53.610Z,27.66
2023-05-11T10:25:53.664Z,27.68
2023-05-11T10:26:53.741Z,27.65
2023-05-11T10:27:53.766Z,27.62
2023-05-11T10:28:53.728Z,27.59
2023-05-11T10:29:53.728Z,27.61
2023-05-11T10:30:53.705Z,27.57
2023-05-11T10:31:53.768Z,27.55
2023-05-11T10:32:53.781Z,27.57
2023-05-11T10:33:53.741Z,27.52
2023-05-11T10:34:53.814Z,27.51
2023-05-11T10:35:54.272Z,27.50
2023-05-11T10:36:53.828Z,27.45
2023-05-11T10:37:53.812Z,27.47
2023-05-11T10:38:53.812Z,27.47
2023-05-11T10:39:53.835Z,27.45
2023-05-11T10:40:53.851Z,27.44
2023-05-11T10:41:53.863Z,27.44
2023-05-11T10:42:53.854Z,27.42
2023-05-11T10:43:53.920Z,27.41
2023-05-11T10:44:53.922Z,27.40
2023-05-11T10:45:53.925Z,27.40
2023-05-11T10:46:53.991Z,27.40
2023-05-11T10:47:54.045Z,27.38
2023-05-11T10:48:54.013Z,27.37
2023-05-11T10:49:54.016Z,27.37
2023-05-11T10:50:54.134Z,27.38
2023-05-11T10:51:54.097Z,27.36
2023-05-11T10:52:54.139Z,27.37
2023-05-11T10:53:54.095Z,27.37
2023-05-11T10:54:54.150Z,27.34
2023-05-11T10:55:54.192Z,27.33
2023-05-11T10:56:54.140Z,27.34
2023-05-11T10:57:54.214Z,27.33
2023-05-11T10:58:54.189Z,27.34
2023-05-11T10:59:54.234Z,27.36
2023-05-11T11:00:54.392Z,27.33
2023-05-11T11:01:54.277Z,27.34
2023-05-11T11:02:54.324Z,27.33
2023-05-11T11:03:54.290Z,27.33
2023-05-11T11:04:54.340Z,27.31
2023-05-11T11:05:54.373Z,27.31
2023-05-11T11:06:54.730Z,27.31
2023-05-11T11:07:54.362Z,27.33
2023-05-11T11:08:54.426Z,27.31
2023-05-11T11:09:54.420Z,27.33
2023-05-11T11:10:54.477Z,27.31
2023-05-11T11:11:54.443Z,27.30
2023-05-11T11:12:54.510Z,27.31
2023-05-11T11:13:54.504Z,27.31
2023-05-11T11:14:54.518Z,27.30
2023-05-11T11:15:54.700Z,27.30
2023-05-11T11:16:55.318Z,27.31
2023-05-11T11:17:54.624Z,27.31
2023-05-11T11:18:54.693Z,27.31
2023-05-11T11:19:54.639Z,27.31
2023-05-11T11:20:54.679Z,27.31
2023-05-11T11:21:54.690Z,27.31
2023-05-11T11:22:54.727Z,27.30
2023-05-11T11:23:54.731Z,27.31
2023-05-11T11:24:54.780Z,27.31
2023-05-11T11:25:54.785Z,27.31
2023-05-11T11:26:54.828Z,27.30
2023-05-11T11:27:54.918Z,27.28
2023-05-11T11:28:54.878Z,27.28
2023-05-11T11:29:54.938Z,27.30
2023-05-11T11:30:54.941Z,27.28
2023-05-11T11:31:54.917Z,27.31
2023-05-11T11:32:55.054Z,27.30
2023-05-11T11:33:54.969Z,27.30
2023-05-11T11:34:55.002Z,27.31
2023-05-11T11:35:55.014Z,27.30
2023-05-11T11:36:55.056Z,27.30
2023-05-11T11:37:55.066Z,27.30
2023-05-11T11:38:55.084Z,27.31
2023-05-11T11:40:02.617Z,27.31
2023-05-11T11:40:56.094Z,27.30
2023-05-11T11:41:55.141Z,27.30
2023-05-11T11:42:55.112Z,27.31
2023-05-11T11:43:55.067Z,27.30
2023-05-11T11:44:55.072Z,27.28
2023-05-11T11:45:55.074Z,27.31
2023-05-11T11:46:55.085Z,27.34
2023-05-11T11:47:55.082Z,27.33
2023-05-11T11:48:55.096Z,27.33
2023-05-11T11:49:55.028Z,27.34
2023-05-11T11:50:55.040Z,27.34
2023-05-11T11:51:55.010Z,27.33
2023-05-11T11:52:55.047Z,27.34
2023-05-11T11:53:55.008Z,27.36
2023-05-11T11:54:55.005Z,27.36
2023-05-11T11:55:54.993Z,27.37
2023-05-11T11:56:54.973Z,27.34
2023-05-11T11:57:54.981Z,27.36
2023-05-11T11:58:54.953Z,27.37
2023-05-11T11:59:54.975Z,27.38
2023-05-11T12:00:54.988Z,27.36
2023-05-11T12:01:55.037Z,27.38
2023-05-11T12:02:55.100Z,27.36
2023-05-11T12:03:55.130Z,27.38
2023-05-11T12:04:55.113Z,27.36
2023-05-11T12:05:55.118Z,27.37
2023-05-11T12:06:55.114Z,27.40
2023-05-11T12:07:55.178Z,27.40
2023-05-11T12:08:55.165Z,27.38
2023-05-11T12:09:55.230Z,27.41
2023-05-11T12:10:55.208Z,27.42
2023-05-11T12:11:55.228Z,27.44
2023-05-11T12:12:55.282Z,27.42
2023-05-11T12:13:55.261Z,27.45
2023-05-11T12:14:55.248Z,27.44
2023-05-11T12:15:55.276Z,27.42
2023-05-11T12:16:55.491Z,27.41
2023-05-11T12:17:55.490Z,27.42
2023-05-11T12:18:55.581Z,27.41
2023-05-11T12:19:55.334Z,27.42
2023-05-11T12:20:55.349Z,27.45
2023-05-11T12:21:55.360Z,27.45
2023-05-11T12:22:55.390Z,27.45
2023-05-11T12:23:55.388Z,27.45
2023-05-11T12:24:55.429Z,27.45
2023-05-11T12:25:55.426Z,27.45
2023-05-11T12:26:55.436Z,27.45
2023-05-11T12:27:55.610Z,27.47
2023-05-11T12:28:55.475Z,27.47
2023-05-11T12:29:55.453Z,27.47
2023-05-11T12:30:55.833Z,27.44
2023-05-11T12:31:55.505Z,27.44
2023-05-11T12:32:57.477Z,27.45
2023-05-11T12:33:55.550Z,27.45
2023-05-11T12:34:55.552Z,27.42
2023-05-11T12:35:55.567Z,27.42
2023-05-11T12:36:57.153Z,27.42
2023-05-11T12:37:55.883Z,27.44
2023-05-11T12:38:55.852Z,27.42
2023-05-11T12:39:55.873Z,27.40
2023-05-11T12:40:55.881Z,27.41
2023-05-11T12:41:55.899Z,27.40
2023-05-11T12:42:55.933Z,27.40
2023-05-11T12:43:55.947Z,27.40
2023-05-11T12:44:55.948Z,27.40
2023-05-11T12:45:56.050Z,27.41
2023-05-11T12:46:56.017Z,27.40
2023-05-11T12:47:56.023Z,27.37
2023-05-11T12:48:57.356Z,27.38
2023-05-11T12:49:55.999Z,27.37
2023-05-11T12:50:55.984Z,27.38
2023-05-11T12:51:56.005Z,27.37
2023-05-11T12:52:56.272Z,27.36
2023-05-11T12:53:56.023Z,27.37